North Manchester, Indiana
Current Conditions -  °F | °C
As of 7:35 AM on Monday 22 Dec 2014 (Local Time) from KASW Reporting Station
Haze Haze  
Wind Chill: 23°   Ceiling: 10000
Heat Index: 28°   Visibility: 5mi
Dew Point: 27°   Wind: 5mph
Humidity: 93%   Direction: 110°ESE
Pressure: 30"   Gusts: NA
Location:  41°N, 85.77°W
Report Text: KASW 221235Z AUTO 11004KT 5SM BR OVC100 M02/M03 A3000 RMK AO2
Loading
Personal Weather Stations






























Interactive Weather Map New forecast layout! Learn more

10-Day Weather Forecast

Advertisements
Track Severe Weather on mobile